South Hill, Washington
Current Conditions -  °F | °C
As of 4:58 AM on Friday 31 Oct 2014 (Local Time) from KTCM Reporting Station
Light Rain Light Rain  
Wind Chill: 51°   Ceiling: 4000
Heat Index: 51°   Visibility: 7mi
Dew Point: 50°   Wind: 0mph
Humidity: 99%   Direction: NA
Pressure: 29.7"   Gusts: NA
Location:  47.14°N, 122.26°W
Report Text: KTCM 311158Z AUTO 00000KT 7SM -RA OVC040 10/10 A2970 RMK AO2 SLP061 P0005 60030 70069 T01030101 10119 20102 57020 $
Loading
Personal Weather Stations






























Interactive Weather Map
Tropical Storm Tracking
New forecast layout! Learn more

10-Day Weather Forecast

Advertisements
Track Severe Weather on mobile